Meadow, South Dakota
Current Conditions -  °F | °C
As of 5:12 AM on Monday 24 Nov 2014 (Local Time) from KHEI Reporting Station
Broken Clouds Broken Clouds  
Wind Chill:   Ceiling: 700
Heat Index: 13°   Visibility: 10mi
Dew Point: 10°   Wind: 7mph
Humidity: 88%   Direction: 300°WNW
Pressure: 29.79"   Gusts: NA
Location:  45.53°N, 102.22°W
Report Text: KHEI 241212Z AUTO 30006KT 10SM BKN007 M11/M12 A2979 RMK AO2 T11061122
Loading
Personal Weather Stations






























Interactive Weather Map New forecast layout! Learn more

10-Day Weather Forecast

Advertisements
Track Severe Weather on mobile